createdAt,value
2023-03-02T00:00:55.264Z,34.70
2023-03-02T00:03:46.249Z,36.80
2023-03-02T00:06:37.829Z,34.90
2023-03-02T00:11:58.447Z,37.10
2023-03-02T00:14:49.435Z,31.10
2023-03-02T00:17:40.270Z,32.80
2023-03-02T00:20:23.620Z,33.60
2023-03-02T00:23:14.893Z,38.50
2023-03-02T00:26:06.282Z,36.70
2023-03-02T00:28:57.000Z,35.00
2023-03-02T00:31:48.742Z,37.40
2023-03-02T00:34:32.965Z,36.20
2023-03-02T00:37:13.713Z,35.20
2023-03-02T00:40:06.671Z,37.30
2023-03-02T00:42:47.712Z,36.50
2023-03-02T00:45:38.642Z,38.80
2023-03-02T00:48:29.487Z,40.40
2023-03-02T00:51:21.391Z,37.30
2023-03-02T00:54:03.203Z,36.10
2023-03-02T00:56:54.034Z,31.10
2023-03-02T00:59:44.878Z,32.30
2023-03-02T01:02:35.934Z,37.00
2023-03-02T01:05:27.101Z,34.70
2023-03-02T01:08:18.260Z,37.50
2023-03-02T01:11:15.577Z,35.60
2023-03-02T01:14:05.720Z,36.90
2023-03-02T01:16:56.657Z,39.00
2023-03-02T01:19:48.101Z,40.50
2023-03-02T01:22:38.986Z,36.50
2023-03-02T01:25:29.995Z,33.40
2023-03-02T01:28:14.767Z,35.40
2023-03-02T01:31:05.882Z,35.50
2023-03-02T01:33:36.618Z,39.10
2023-03-02T01:36:27.317Z,34.80
2023-03-02T01:39:18.232Z,42.90
2023-03-02T01:42:09.374Z,40.40
2023-03-02T01:44:57.217Z,38.70
2023-03-02T01:47:48.144Z,32.80
2023-03-02T01:50:38.920Z,36.70
2023-03-02T01:53:33.191Z,35.10
2023-03-02T01:56:28.038Z,43.60
2023-03-02T01:59:22.494Z,37.50
2023-03-02T02:02:13.690Z,37.10
2023-03-02T02:05:05.948Z,36.10
2023-03-02T02:07:56.846Z,36.30
2023-03-02T02:10:47.594Z,39.50
2023-03-02T02:13:28.378Z,37.80
2023-03-02T02:16:19.557Z,39.30
2023-03-02T02:19:04.026Z,38.90
2023-03-02T02:21:54.745Z,45.20
2023-03-02T02:24:51.160Z,40.30
2023-03-02T02:27:42.083Z,36.30
2023-03-02T02:30:32.893Z,40.50
2023-03-02T02:33:26.654Z,35.20
2023-03-02T02:36:24.704Z,27.90
2023-03-02T02:39:16.240Z,36.70
2023-03-02T02:42:14.104Z,38.70
2023-03-02T02:45:08.386Z,38.10
2023-03-02T02:47:59.767Z,39.90
2023-03-02T02:50:38.146Z,34.40
2023-03-02T02:53:36.251Z,40.10
2023-03-02T02:56:28.527Z,41.60
2023-03-02T02:59:23.135Z,40.20
2023-03-02T03:02:21.203Z,36.20
2023-03-02T03:05:16.648Z,40.70
2023-03-02T03:08:12.090Z,43.40
2023-03-02T03:11:03.871Z,38.50
2023-03-02T03:13:58.361Z,39.40
2023-03-02T03:16:49.383Z,35.80
2023-03-02T03:19:41.746Z,35.00
2023-03-02T03:22:33.600Z,39.40
2023-03-02T03:25:07.937Z,36.30
2023-03-02T03:27:58.750Z,40.60
2023-03-02T03:30:49.703Z,37.60
2023-03-02T03:33:40.684Z,33.10
2023-03-02T03:36:33.765Z,39.60
2023-03-02T03:39:24.752Z,39.80
2023-03-02T03:42:15.641Z,38.40
2023-03-02T03:44:56.860Z,36.90
2023-03-02T03:47:47.631Z,35.60
2023-03-02T03:50:27.453Z,36.00
2023-03-02T03:53:18.237Z,34.50
2023-03-02T03:56:09.707Z,39.20
2023-03-02T04:01:59.911Z,44.80
2023-03-02T04:04:50.780Z,34.80
2023-03-02T04:07:43.210Z,39.30
2023-03-02T04:10:34.026Z,35.40
2023-03-02T04:13:24.818Z,41.40
2023-03-02T04:16:09.780Z,38.70
2023-03-02T04:19:00.621Z,37.70
2023-03-02T04:21:53.667Z,40.90
2023-03-02T04:24:44.617Z,35.90
2023-03-02T04:27:35.339Z,37.90
2023-03-02T04:30:28.208Z,37.50
2023-03-02T04:33:19.024Z,34.60
2023-03-02T04:36:10.703Z,39.80
2023-03-02T04:39:00.350Z,38.40
2023-03-02T04:41:52.159Z,39.40
2023-03-02T04:44:42.900Z,38.70
2023-03-02T04:47:23.785Z,38.80
2023-03-02T04:50:16.647Z,39.60
2023-03-02T04:53:07.967Z,37.30
2023-03-02T04:55:57.718Z,34.20
2023-03-02T04:58:48.553Z,32.20
2023-03-02T05:01:39.333Z,39.10
2023-03-02T05:04:33.880Z,43.30
2023-03-02T05:07:24.811Z,37.20
2023-03-02T05:10:18.237Z,40.10
2023-03-02T05:13:08.928Z,30.70
2023-03-02T05:15:59.715Z,36.80
2023-03-02T05:18:50.980Z,36.80
2023-03-02T05:21:41.860Z,33.20
2023-03-02T05:24:32.732Z,35.70
2023-03-02T05:27:23.544Z,31.10
2023-03-02T05:30:16.238Z,35.40
2023-03-02T05:33:07.198Z,30.70
2023-03-02T05:35:58.288Z,36.40
2023-03-02T05:38:49.141Z,35.40
2023-03-02T05:41:31.365Z,41.80
2023-03-02T05:44:22.281Z,32.70
2023-03-02T05:47:13.097Z,33.90
2023-03-02T05:50:03.894Z,36.40
2023-03-02T05:52:54.728Z,36.70
2023-03-02T05:55:45.652Z,38.80
2023-03-02T05:58:18.832Z,31.90
2023-03-02T06:01:15.289Z,34.40
2023-03-02T06:04:06.602Z,33.70
2023-03-02T06:06:50.354Z,34.10
2023-03-02T06:09:42.225Z,32.40
2023-03-02T06:12:33.352Z,40.70
2023-03-02T06:15:24.090Z,34.20
2023-03-02T06:18:15.057Z,34.10
2023-03-02T06:21:06.626Z,34.40
2023-03-02T06:26:47.592Z,32.60
2023-03-02T06:29:38.713Z,34.80
2023-03-02T06:32:34.463Z,37.10
2023-03-02T06:35:25.563Z,38.30
2023-03-02T06:38:06.914Z,37.50
2023-03-02T06:40:58.016Z,31.80
2023-03-02T06:43:48.547Z,29.60
2023-03-02T06:46:40.615Z,39.90
2023-03-02T06:49:31.604Z,39.40
2023-03-02T06:52:13.726Z,34.00
2023-03-02T06:55:04.903Z,38.00
2023-03-02T06:57:55.866Z,36.00
2023-03-02T07:00:47.269Z,37.10
2023-03-02T07:03:27.492Z,38.60
2023-03-02T07:06:18.431Z,43.80
2023-03-02T07:08:52.597Z,37.50
2023-03-02T07:11:35.856Z,36.10
2023-03-02T07:14:27.516Z,38.10
2023-03-02T07:17:00.987Z,32.20
2023-03-02T07:19:51.842Z,32.70
2023-03-02T07:22:22.655Z,33.30
2023-03-02T07:24:55.567Z,26.10
2023-03-02T07:27:31.142Z,36.80
2023-03-02T07:30:14.920Z,36.80
2023-03-02T07:33:04.819Z,36.20
2023-03-02T07:35:38.423Z,39.00
2023-03-02T07:38:29.732Z,34.50
2023-03-02T07:41:20.549Z,31.80
2023-03-02T07:43:54.361Z,35.40
2023-03-02T07:46:25.257Z,35.80
2023-03-02T07:49:07.229Z,36.00
2023-03-02T07:51:42.408Z,34.30
2023-03-02T07:54:16.046Z,30.00
2023-03-02T07:56:50.270Z,34.10
2023-03-02T07:59:21.041Z,34.80
2023-03-02T08:02:02.930Z,37.10
2023-03-02T08:04:54.352Z,36.80
2023-03-02T08:07:25.163Z,35.30
2023-03-02T08:10:05.244Z,33.60
2023-03-02T08:12:47.375Z,28.60
2023-03-02T08:15:21.542Z,32.70
2023-03-02T08:18:02.582Z,37.60
2023-03-02T08:20:53.919Z,32.20
2023-03-02T08:23:38.813Z,32.50
2023-03-02T08:26:29.861Z,36.20
2023-03-02T08:29:09.968Z,35.20
2023-03-02T08:32:01.268Z,35.80
2023-03-02T08:34:52.365Z,29.70
2023-03-02T08:37:23.223Z,37.00
2023-03-02T08:39:58.656Z,33.30
2023-03-02T08:42:29.754Z,31.70
2023-03-02T08:45:13.341Z,34.50
2023-03-02T08:47:55.758Z,33.70
2023-03-02T08:50:46.704Z,30.80
2023-03-02T08:53:40.509Z,38.80
2023-03-02T08:56:34.079Z,31.70
2023-03-02T08:59:25.349Z,31.00
2023-03-02T09:02:16.550Z,31.30
2023-03-02T09:05:08.496Z,32.10
2023-03-02T09:07:42.018Z,32.70
2023-03-02T09:10:33.410Z,30.40
2023-03-02T09:13:24.473Z,30.40
2023-03-02T09:16:16.241Z,27.40
2023-03-02T09:19:01.402Z,33.90
2023-03-02T09:21:35.992Z,34.70
2023-03-02T09:24:27.202Z,29.60
2023-03-02T09:26:58.141Z,31.30
2023-03-02T09:29:31.604Z,33.00
2023-03-02T09:32:04.955Z,33.50
2023-03-02T09:34:50.032Z,30.90
2023-03-02T09:37:32.514Z,28.50
2023-03-02T09:40:27.975Z,29.00
2023-03-02T09:43:19.090Z,29.70
2023-03-02T09:46:12.533Z,31.20
2023-03-02T09:48:53.994Z,35.00
2023-03-02T09:51:41.479Z,30.50
2023-03-02T09:54:25.822Z,28.50
2023-03-02T09:57:25.498Z,31.10
2023-03-02T10:00:18.109Z,31.90
2023-03-02T10:03:17.917Z,30.10
2023-03-02T10:05:52.071Z,30.40
2023-03-02T10:08:40.972Z,28.20
2023-03-02T10:11:18.831Z,27.50
2023-03-02T10:13:57.074Z,34.40
2023-03-02T10:16:48.534Z,31.80
2023-03-02T10:19:38.037Z,32.10
2023-03-02T10:22:28.539Z,33.80
2023-03-02T10:25:06.797Z,31.00
2023-03-02T10:27:57.887Z,31.50
2023-03-02T10:30:51.150Z,26.30
2023-03-02T10:33:44.319Z,26.90
2023-03-02T10:36:27.552Z,26.60
2023-03-02T10:39:00.639Z,25.30
2023-03-02T10:41:57.731Z,31.10
2023-03-02T10:44:41.408Z,28.30
2023-03-02T10:47:34.780Z,29.40
2023-03-02T10:50:05.746Z,29.50
2023-03-02T10:53:00.128Z,27.90
2023-03-02T10:55:53.749Z,24.60
2023-03-02T10:58:32.122Z,24.40
2023-03-02T11:01:10.014Z,32.20
2023-03-02T11:03:43.936Z,27.90
2023-03-02T11:06:22.797Z,27.60
2023-03-02T11:09:04.771Z,30.10
2023-03-02T11:11:38.936Z,29.90
2023-03-02T11:14:29.849Z,24.80
2023-03-02T11:17:33.758Z,29.10
2023-03-02T11:20:16.096Z,30.10
2023-03-02T11:22:58.360Z,32.10
2023-03-02T11:25:36.996Z,26.80
2023-03-02T11:28:16.642Z,29.20
2023-03-02T11:30:54.633Z,29.40
2023-03-02T11:33:30.895Z,30.80
2023-03-02T11:36:06.711Z,29.40
2023-03-02T11:38:48.375Z,25.40
2023-03-02T11:41:31.000Z,31.80
2023-03-02T11:44:24.860Z,26.00
2023-03-02T11:47:02.620Z,24.80
2023-03-02T11:49:43.435Z,25.80
2023-03-02T11:52:27.386Z,26.00
2023-03-02T11:55:04.649Z,27.30
2023-03-02T11:57:39.826Z,30.80
2023-03-02T12:00:28.472Z,27.10
2023-03-02T12:03:05.231Z,25.30
2023-03-02T12:05:48.660Z,27.90
2023-03-02T12:08:41.281Z,26.70
2023-03-02T12:11:35.298Z,27.40
2023-03-02T12:14:26.049Z,25.80
2023-03-02T12:17:07.548Z,25.80
2023-03-02T12:22:26.580Z,25.40
2023-03-02T12:25:07.078Z,23.40
2023-03-02T12:27:40.240Z,25.10
2023-03-02T12:30:27.235Z,25.60
2023-03-02T12:33:22.233Z,24.50
2023-03-02T12:36:06.640Z,23.10
2023-03-02T12:38:40.481Z,24.00
2023-03-02T12:41:31.002Z,21.20
2023-03-02T12:44:23.407Z,24.50
2023-03-02T12:46:54.689Z,23.60
2023-03-02T12:49:43.182Z,22.40
2023-03-02T12:52:28.282Z,23.50
2023-03-02T12:55:16.533Z,24.00
2023-03-02T12:57:53.242Z,23.70
2023-03-02T13:00:26.905Z,22.00
2023-03-02T13:03:02.294Z,24.90
2023-03-02T13:05:35.689Z,26.60
2023-03-02T13:08:09.818Z,24.30
2023-03-02T13:10:43.939Z,21.20
2023-03-02T13:13:21.451Z,23.10
2023-03-02T13:15:55.184Z,23.90
2023-03-02T13:18:32.103Z,23.50
2023-03-02T13:21:04.928Z,21.00
2023-03-02T13:23:36.631Z,21.40
2023-03-02T13:26:08.333Z,22.60
2023-03-02T13:28:40.916Z,21.60
2023-03-02T13:31:25.957Z,22.50
2023-03-02T13:33:59.017Z,18.10
2023-03-02T13:36:35.449Z,22.30
2023-03-02T13:39:09.203Z,21.90
2023-03-02T13:41:40.731Z,19.60
2023-03-02T13:44:24.532Z,20.70
2023-03-02T13:46:55.726Z,22.30
2023-03-02T13:49:32.544Z,24.20
2023-03-02T13:52:08.378Z,21.60
2023-03-02T13:54:43.140Z,22.90
2023-03-02T13:57:19.986Z,20.70
2023-03-02T13:59:51.048Z,17.10
2023-03-02T14:02:26.326Z,19.20
2023-03-02T14:04:58.080Z,19.30
2023-03-02T14:07:28.932Z,21.80
2023-03-02T14:09:59.666Z,20.20
2023-03-02T14:15:04.575Z,22.00
2023-03-02T14:17:36.238Z,20.00
2023-03-02T14:20:08.049Z,17.60
2023-03-02T14:22:39.065Z,16.80
2023-03-02T14:25:11.549Z,15.20
2023-03-02T14:27:43.835Z,17.20
2023-03-02T14:30:18.692Z,17.50
2023-03-02T14:32:51.225Z,17.90
2023-03-02T14:35:22.363Z,14.80
2023-03-02T14:40:26.696Z,16.90
2023-03-02T14:42:57.608Z,15.90
2023-03-02T14:45:30.484Z,16.50
2023-03-02T14:48:01.545Z,16.70
2023-03-02T14:50:33.053Z,15.30
2023-03-02T14:53:03.858Z,15.10
2023-03-02T14:55:36.460Z,15.30
2023-03-02T14:58:13.403Z,15.70
2023-03-02T15:00:45.148Z,16.00
2023-03-02T15:03:22.841Z,17.00
2023-03-02T15:06:01.132Z,15.10
2023-03-02T15:08:32.912Z,17.30
2023-03-02T15:13:32.904Z,13.50
2023-03-02T15:16:04.096Z,16.90
2023-03-02T15:21:04.137Z,15.00
2023-03-02T15:23:34.862Z,14.60
2023-03-02T15:26:06.905Z,16.90
2023-03-02T15:28:37.885Z,16.60
2023-03-02T15:31:16.206Z,15.40
2023-03-02T15:33:47.704Z,14.90
2023-03-02T15:36:18.494Z,14.00
2023-03-02T15:38:51.665Z,15.40
2023-03-02T15:41:22.531Z,15.80
2023-03-02T15:43:54.223Z,16.30
2023-03-02T15:46:25.378Z,14.20
2023-03-02T15:51:25.364Z,16.70
2023-03-02T15:53:56.345Z,22.50
2023-03-02T15:56:32.850Z,20.70
2023-03-02T15:59:09.607Z,18.50
2023-03-02T16:01:40.325Z,18.20
2023-03-02T16:04:11.128Z,16.80
2023-03-02T16:06:42.202Z,18.60
2023-03-02T16:09:13.049Z,18.40
2023-03-02T16:11:43.798Z,15.90
2023-03-02T16:14:15.725Z,18.00
2023-03-02T16:16:47.079Z,14.40
2023-03-02T16:19:20.169Z,15.80
2023-03-02T16:21:55.561Z,13.80
2023-03-02T16:24:26.643Z,15.00
2023-03-02T16:27:09.141Z,19.10
2023-03-02T16:29:43.478Z,15.10
2023-03-02T16:32:24.431Z,15.90
2023-03-02T16:35:15.563Z,16.80
2023-03-02T16:37:56.822Z,14.50
2023-03-02T16:40:49.491Z,14.00
2023-03-02T16:43:29.728Z,16.70
2023-03-02T16:46:13.618Z,15.60
2023-03-02T16:49:05.596Z,14.70
2023-03-02T16:51:45.595Z,16.10
2023-03-02T16:57:09.707Z,13.40
2023-03-02T16:59:52.186Z,16.30
2023-03-02T17:02:43.326Z,14.00
2023-03-02T17:05:24.667Z,16.40
2023-03-02T17:08:16.731Z,18.10
2023-03-02T17:11:08.201Z,17.00
2023-03-02T17:13:50.241Z,21.70
2023-03-02T17:16:42.445Z,17.20
2023-03-02T17:19:26.776Z,17.70
2023-03-02T17:22:06.661Z,15.40
2023-03-02T17:24:42.780Z,16.30
2023-03-02T17:27:25.319Z,13.30
2023-03-02T17:30:00.245Z,17.20
2023-03-02T17:32:31.343Z,17.00
2023-03-02T17:35:22.711Z,14.90
2023-03-02T17:37:55.781Z,19.80
2023-03-02T17:40:46.965Z,20.50
2023-03-02T17:43:39.845Z,19.90
2023-03-02T17:46:32.612Z,18.90
2023-03-02T17:49:03.412Z,23.20
2023-03-02T17:51:47.105Z,22.20
2023-03-02T17:54:17.790Z,24.50
2023-03-02T17:57:09.098Z,20.80
2023-03-02T17:59:39.957Z,21.50
2023-03-02T18:02:21.440Z,23.90
2023-03-02T18:05:13.879Z,22.70
2023-03-02T18:08:04.953Z,25.50
2023-03-02T18:10:35.880Z,25.20
2023-03-02T18:13:19.918Z,23.50
2023-03-02T18:15:55.569Z,21.30
2023-03-02T18:18:46.591Z,28.40
2023-03-02T18:21:39.823Z,26.10
2023-03-02T18:24:11.725Z,25.80
2023-03-02T18:27:02.758Z,26.10
2023-03-02T18:29:53.976Z,28.20
2023-03-02T18:32:44.988Z,22.40
2023-03-02T18:35:36.192Z,25.10
2023-03-02T18:38:31.068Z,21.60
2023-03-02T18:41:23.165Z,26.10
2023-03-02T18:44:14.159Z,23.40
2023-03-02T18:47:07.634Z,28.10
2023-03-02T18:50:00.422Z,28.10
2023-03-02T18:52:34.085Z,31.20
2023-03-02T18:55:26.614Z,31.90
2023-03-02T18:58:20.763Z,33.40
2023-03-02T19:01:12.570Z,32.40
2023-03-02T19:04:05.110Z,26.90
2023-03-02T19:06:46.062Z,27.80
2023-03-02T19:09:37.724Z,29.90
2023-03-02T19:12:19.985Z,28.30
2023-03-02T19:15:13.449Z,29.10
2023-03-02T19:18:05.987Z,29.00
2023-03-02T19:20:57.743Z,28.10
2023-03-02T19:23:48.840Z,32.80
2023-03-02T19:26:39.890Z,32.80
2023-03-02T19:29:30.907Z,28.60
2023-03-02T19:32:22.368Z,35.10
2023-03-02T19:35:04.598Z,28.70
2023-03-02T19:37:55.768Z,33.50
2023-03-02T19:40:45.854Z,26.40
2023-03-02T19:43:20.429Z,31.60
2023-03-02T19:46:12.315Z,36.10
2023-03-02T19:49:03.242Z,31.90
2023-03-02T19:51:45.409Z,31.10
2023-03-02T19:54:36.454Z,26.90
2023-03-02T19:57:27.549Z,31.10
2023-03-02T20:00:20.275Z,30.30
2023-03-02T20:03:11.312Z,33.70
2023-03-02T20:05:52.325Z,28.50
2023-03-02T20:08:43.415Z,29.30
2023-03-02T20:11:17.822Z,31.10
2023-03-02T20:13:50.851Z,30.00
2023-03-02T20:16:41.852Z,33.80
2023-03-02T20:19:32.939Z,28.90
2023-03-02T20:22:24.316Z,29.30
2023-03-02T20:25:15.945Z,31.80
2023-03-02T20:30:51.151Z,28.10
2023-03-02T20:33:24.119Z,27.30
2023-03-02T20:35:55.531Z,28.00
2023-03-02T20:38:32.429Z,27.10
2023-03-02T20:41:07.435Z,35.20
2023-03-02T20:43:48.904Z,27.00
2023-03-02T20:46:24.739Z,29.80
2023-03-02T20:49:05.515Z,42.50
2023-03-02T20:51:53.590Z,28.10
2023-03-02T20:54:33.453Z,28.70
2023-03-02T20:57:18.257Z,26.70
2023-03-02T21:00:12.596Z,29.60
2023-03-02T21:03:04.099Z,26.50
2023-03-02T21:05:49.525Z,27.10
2023-03-02T21:08:34.104Z,33.60
2023-03-02T21:11:26.153Z,25.40
2023-03-02T21:14:17.359Z,26.30
2023-03-02T21:19:49.938Z,29.60
2023-03-02T21:22:41.026Z,26.10
2023-03-02T21:25:32.185Z,29.30
2023-03-02T21:28:23.286Z,29.00
2023-03-02T21:31:18.426Z,26.30
2023-03-02T21:34:09.796Z,28.30
2023-03-02T21:37:00.867Z,33.40
2023-03-02T21:39:52.419Z,28.70
2023-03-02T21:42:43.610Z,34.00
2023-03-02T21:45:22.942Z,36.70
2023-03-02T21:48:15.884Z,29.10
2023-03-02T21:50:58.037Z,29.50
2023-03-02T21:53:29.321Z,35.30
2023-03-02T21:58:50.469Z,29.40
2023-03-02T22:01:41.719Z,28.90
2023-03-02T22:04:35.274Z,32.60
2023-03-02T22:07:26.607Z,36.30
2023-03-02T22:10:28.000Z,27.40
2023-03-02T22:13:23.511Z,36.20
2023-03-02T22:16:20.135Z,36.40
2023-03-02T22:19:25.642Z,29.60
2023-03-02T22:22:23.188Z,29.90
2023-03-02T22:25:19.576Z,34.40
2023-03-02T22:28:17.945Z,33.70
2023-03-02T22:31:18.482Z,29.30
2023-03-02T22:34:14.470Z,31.80
2023-03-02T22:37:11.814Z,32.80
2023-03-02T22:40:09.395Z,29.10
2023-03-02T22:43:15.091Z,32.80
2023-03-02T22:46:15.851Z,34.80
2023-03-02T22:49:17.786Z,29.70
2023-03-02T22:52:17.434Z,30.60
2023-03-02T22:55:37.515Z,33.50
2023-03-02T22:58:42.771Z,32.70
2023-03-02T23:01:42.274Z,31.60
2023-03-02T23:04:27.186Z,29.60
2023-03-02T23:07:20.363Z,41.70
2023-03-02T23:10:22.676Z,32.10
2023-03-02T23:13:15.445Z,32.00
2023-03-02T23:16:17.392Z,31.30
2023-03-02T23:19:08.489Z,38.80
2023-03-02T23:22:02.942Z,33.20
2023-03-02T23:24:53.781Z,30.20
2023-03-02T23:27:35.276Z,31.80
2023-03-02T23:33:15.681Z,36.40
2023-03-02T23:36:07.402Z,27.80
2023-03-02T23:38:58.498Z,34.20
2023-03-02T23:41:49.655Z,31.80
2023-03-02T23:44:40.654Z,37.80
2023-03-02T23:47:15.917Z,38.20
2023-03-02T23:50:08.865Z,32.20
2023-03-02T23:52:59.803Z,30.30
2023-03-02T23:55:50.423Z,35.30
2023-03-02T23:58:41.674Z,34.10
